Kezdőlap
METAR-TAF:

METAR-TAF

Repülőterek :

Rundu, Namíbia

földrajzi szélesség: 17-57-20S, földrajzi hosszúság: 019-43-25E, magasság: 1106 m

Jelenlegi meteorológiai megfigyelések

A jelentés 40 perccel ezelõtt készült, 20:00 UTC
Szélcsend
Hőmérséklet 16°C
Páratartalom 29%
Légköri nyomás 1023 hPa

METAR: FYRU 192000Z AUTO 00000KT //// // ////// 16/M02 Q1023

Idő: 22:40 (20:40 UTC)

Előrejelzés

A jelentés 3 órával és 40 perccel ezelõtt készült, 17:00 UTC
Az előrejelzés 19-én 18 óra UTC és 20-én 03 óra UTC között érvényes
Délkeleti szél 3 kt
Látótávolság 10 km, vagy több
felhőtlen 1500 m magasságban, és nincs gomolyfelhõ

TAF: FYRU 191700Z 1918/2003 13003KT CAVOK

Meteorológiai megfigyelések és előrejelzések több, mint 4000 repülőtéren (METAR és TAF jelentéseket).

A térképen piros és sárga pontok jelzik az elérhető meteorológiai állomásokat.

Mozgassa az egeret a pont fölött, hogy megjelenjen az állomás neve.

Azután kattintson az időjárási megfigyelések és előrejelzések megtekintéséhez.

A térkép megváltoztatása: kattintson a fekete keresztel jelölt zöld gombra ráközelítéshez, a vonallal jelölt zöld gombra távolításhoz, vagy a zöld nyilakra a szomszédos térképek eléréséhez.


METAR-TAF: